createdAt,value
2022-10-17T00:00:02.965Z,11.4
2022-10-17T00:15:02.185Z,11.3
2022-10-17T00:30:02.626Z,11.2
2022-10-17T00:45:03.064Z,10.9
2022-10-17T01:00:02.498Z,10.9
2022-10-17T01:15:03.038Z,10.8
2022-10-17T01:30:02.357Z,10.6
2022-10-17T01:45:02.996Z,10.5
2022-10-17T02:00:02.255Z,10.5
2022-10-17T02:15:02.696Z,10.6
2022-10-17T02:30:03.143Z,10.4
2022-10-17T02:45:02.577Z,10.4
2022-10-17T03:00:02.989Z,10.3
2022-10-17T03:15:02.453Z,10.3
2022-10-17T03:30:02.988Z,10.1
2022-10-17T03:45:02.307Z,10.1
2022-10-17T04:00:02.938Z,10.1
2022-10-17T04:15:02.191Z,10.1
2022-10-17T04:30:02.625Z,10.3
2022-10-17T04:45:03.074Z,10.3
2022-10-17T05:00:02.593Z,10.1
2022-10-17T05:15:03.030Z,10.1
2022-10-17T05:30:02.376Z,10.2
2022-10-17T05:45:03.037Z,10.2
2022-10-17T06:00:02.258Z,10.4
2022-10-17T06:15:02.659Z,10.6
2022-10-17T06:30:03.136Z,10.7
2022-10-17T06:45:02.548Z,10.9
2022-10-17T07:00:03.061Z,11.3
2022-10-17T07:15:02.422Z,11.8
2022-10-17T07:30:03.075Z,12.3
2022-10-17T07:45:02.326Z,12.9
2022-10-17T08:00:02.765Z,13.7
2022-10-17T08:15:03.181Z,15.0
2022-10-17T08:30:02.623Z,16.0
2022-10-17T08:45:03.080Z,16.7
2022-10-17T09:00:02.513Z,17.6
2022-10-17T09:15:03.093Z,17.8
2022-10-17T09:30:02.400Z,18.0
2022-10-17T09:45:03.088Z,18.1
2022-10-17T10:00:02.318Z,18.9
2022-10-17T10:15:02.729Z,19.7
2022-10-17T10:30:03.145Z,19.4
2022-10-17T10:45:02.575Z,20.2
2022-10-17T11:00:03.108Z,20.3
2022-10-17T11:15:02.481Z,20.0
2022-10-17T11:30:03.118Z,19.6
2022-10-17T11:45:02.368Z,19.3
2022-10-17T12:00:02.807Z,19.1
2022-10-17T12:15:03.243Z,19.6
2022-10-17T12:30:02.704Z,19.6
2022-10-17T12:45:03.127Z,19.5
2022-10-17T13:00:02.553Z,19.7
2022-10-17T13:15:03.135Z,19.9
2022-10-17T13:30:02.457Z,19.6
2022-10-17T13:45:03.124Z,19.0
2022-10-17T14:00:02.352Z,18.5
2022-10-17T14:15:11.223Z,18.1
2022-10-17T14:30:03.230Z,17.8
2022-10-17T14:45:02.639Z,17.5
2022-10-17T15:00:03.156Z,17.4
2022-10-17T15:15:02.533Z,17.3
2022-10-17T15:30:03.162Z,17.1
2022-10-17T15:45:02.517Z,17.1
2022-10-17T16:00:02.904Z,17.0
2022-10-17T16:15:02.342Z,17.1
2022-10-17T16:30:02.778Z,17.1
2022-10-17T16:45:03.221Z,17.0
2022-10-17T17:00:02.655Z,17.0
2022-10-17T17:15:03.182Z,16.9
2022-10-17T17:30:02.511Z,16.6
2022-10-17T17:45:03.193Z,16.6
2022-10-17T18:00:02.402Z,16.4
2022-10-17T18:15:02.859Z,16.4
2022-10-17T18:30:02.317Z,16.3
2022-10-17T18:45:02.745Z,16.0
2022-10-17T19:00:03.193Z,15.8
2022-10-17T19:15:02.622Z,15.6
2022-10-17T19:30:03.195Z,15.5
2022-10-17T19:45:02.507Z,15.3
2022-10-17T20:00:03.148Z,15.2
2022-10-17T20:15:02.396Z,15.2
2022-10-17T20:30:02.825Z,15.1
2022-10-17T20:45:02.276Z,15.0
2022-10-17T21:00:02.686Z,15.0
2022-10-17T21:15:03.220Z,14.7
2022-10-17T21:30:02.642Z,14.7
2022-10-17T21:45:10.527Z,14.7
2022-10-17T22:00:02.514Z,14.5
2022-10-17T22:15:02.140Z,14.4
2022-10-17T22:30:02.379Z,14.1
2022-10-17T22:45:02.785Z,14.0
2022-10-17T23:00:03.286Z,13.9
2022-10-17T23:15:02.702Z,13.8
2022-10-17T23:30:03.255Z,13.6
2022-10-17T23:45:02.573Z,13.5
